Aérodrome :
LOGIN :

S'inscrire | Disclaimer

   EN    FR    IT 

 










Légende :    VFR   VFR Marginal   IFR   IFR Intensif   IFR Très Intensif
Visi : 
Plafond : 
>= 8 km
>= 3000ft
5 à 8 km
1000 à 3000 ft
1500m à 5 km
500 à 1000 ft
800 à 1500m
200 à 500 ft
< 800m
< 200 ft
Symboles :   Orages  Brouillard  Fortes neiges  Fortes précipitations  Vent > 20 kt
SIGMETs :   Divers  Orages  Givrage  Turbulence  Onde Orograph.  Cendres Volcan.







- Altitude de l'aérodrome : 1455 ft


ETIH - Hohenfels Army Air Field

DERNIER METAR :
  • 252356Z AUTO 34003KT 9999 CLR 09/04 A2980 RMK AO2 SLP085 T00890039 10214 20089 50002 $

METARs EXPIRÉS :
  • 252302Z AUTO 00000KT 5000 HZ CLR 10/05 A2980 RMK AO2 SLP085 $
  • 252256Z AUTO 27004KT 3200 HZ CLR 10/05 A2980 RMK AO2 SLP085 T01020048 402520034 $
  • 252245Z AUTO 27005KT 3000 HZ CLR 10/05 A2981 RMK AO2 SLP088 $
  • 252231Z AUTO 27004KT 2800 HZ CLR 11/05 A2980 RMK AO2 VIS 2800V8000 SLP085 $
  • 252206Z AUTO 00000KT 5000 HZ CLR 11/04 A2980 RMK AO2 SLP085 $
  • 252201Z AUTO 00000KT 3200 HZ CLR 11/04 A2980 RMK AO2 VIS 3000V5000 SLP085 $
  • 252136Z AUTO 00000KT 5000 HZ CLR 11/04 A2980 RMK AO2 SLP085 $
  • 252129Z AUTO 00000KT 3000 HZ CLR 11/04 A2980 RMK AO2 SLP085 $
  • 252116Z AUTO 00000KT 3200 HZ CLR 12/04 A2980 RMK AO2 VIS 3000V4400 SLP085 $
  • 252102Z AUTO 00000KT 3600 HZ CLR 11/04 A2979 RMK AO2 VIS 2600V3600 SLP083 $
  • 252056Z AUTO 00000KT 2600 HZ CLR 11/04 A2979 RMK AO2 SLP083 T01130043 52005 $

Prévision TAF périmée.
Pas de NOTAMs connus pour ce terrain.



MET'MAP, la Météo Aéronautique d'un coup d'oeil ! - Copyright ORBIFLY Décembre 2007 - Disclaimer

ORBIFLY MET'MAP TEAM :

Programmation & Développement : Alexandra Zaïnal
Conception & Développement : Baudouin d'Aumeries
Co-Programmation & Développement : Marc-Olivier Méhu
Soutien technique & logistique : Manuel Goepfert

Contact : metmap@orbifly.com




SOURCES & CREDITS :

   NOAA